EBG weather

South Texas International At Edinburg Airport
Edinburg, Texas, United States

Public forecast

Using degrees Fahrenheit for public forecast. Weather courtesy of forecast.io.

Current aviation weather report (METAR) for South Texas International At Edinburg Airport

Retrieved 2019/10/15 03:35 UTC (10 minutes ago):

KEBG 150335Z AUTO 14005KT 10SM CLR 25/22 A2995 RMK AO2 T02530220

Closest aviation forecast (TAF) to South Texas International At Edinburg Airport

Closest forecast is Mc Allen Miller International Airport, 17.1 nm (31.8 km) SSW. Retrieved 2019-10-15 00:22 UTC (3 hours ago):

TAF KMFE 142320Z 1500/1524 13011KT P6SM FEW090 FEW200 FM150600 15008KT P6SM FEW018 SCT120 FM151200 16006KT P6SM FEW017 SCT200 FM151500 16010KT P6SM FEW050 SCT250